AirNav   Duncan Aviation - Near you to keep you flying
 
 1509 users online  

OK70 Niles Canyon Ranch Airport
Hinton, Oklahoma, USA

GOING TO HINTON?


FAA INFORMATION EFFECTIVE 03 NOVEMBER 2022

Location

FAA Identifier: OK70
Lat/Long: 35-25-50.0600N 098-15-27.6500W
35-25.834333N 098-15.460833W
35.4305722,-98.2576806
(estimated)
Elevation: 1611 ft. / 491 m (estimated)
From city: 6 miles SE of HINTON, OK
Time zone: UTC -6 (UTC -5 during Daylight Saving Time)
Zip code: 73047

Airport Operations

Airport use: Private use. Permission required prior to landing
Activation date: 11/2015
Control tower: no
ARTCC: FORT WORTH CENTER
FSS: MC ALESTER FLIGHT SERVICE STATION
Attendance: UNATNDD
Wind indicator: yes
Segmented circle: no

Airport Communications

WX AWOS-3 at RQO (13 nm E): 118.475 (405-262-0087)

Nearby radio navigation aids

VOR radial/distance  VOR name  Freq  Var
PWAr250/30.5WILEY POST VOR/DME113.4008E
IRWr271/32.0WILL ROGERS VORTAC114.1007E

Airport Services

Runway Information

Runway 15/33

Dimensions: 1700 x 125 ft. / 518 x 38 m
Surface: turf
RUNWAY 15  RUNWAY 33
Traffic pattern: leftleft

Airport Ownership and Management from official FAA records

Ownership: Privately-owned
Owner: NILES, L.L.C.
2300 SW 89TH STREET SUITE A
OKLAHOMA CITY, OK 73159
Phone 405-691-8797
Manager: P.B. ODOM III
2300 SW 89TH STREET SUITE A
OKLAHOMA CITY, OK 73159
Phone 405-691-8797

Airport Operational Statistics

Aircraft based on the field: 1
Single engine airplanes: 1
    

Additional Remarks

FOR CD CTC FORT WORTH ARTCC AT 817-858-7584.

Instrument Procedures

There are no published instrument procedures at OK70.

Some nearby airports with instrument procedures:

2O8 - Hinton Municipal Airport (6 nm NW)
KRQO - El Reno Regional Airport (13 nm E)
KOJA - Weatherford Stafford Airport (21 nm W)
KRCE - Clarence E Page Municipal Airport (21 nm E)
KCHK - Chickasha Municipal Airport (25 nm SE)
 
Loc | Ops | Rwys | IFR | FBO | Links
Com | Nav | Svcs | Stats | Notes
Aerial photo
No photo
 
Airport distance calculator
Flying to Niles Canyon Ranch Airport? Find the distance to fly.

From to OK70

Sunrise and sunset
Times for 29-Nov-2022
 Local
(UTC-6)
 Zulu
(UTC)
Morning civil twilight06:5512:55
Sunrise07:2313:23
Sunset17:2023:20
Evening civil twilight17:4823:48

Current date and time
Zulu (UTC)  29-Nov-2022 17:42:25
Local (UTC-6)  29-Nov-2022 11:42:25
 
METAR
KRQO 
13nm E 
291655Z AUTO 27016KT 10SM CLR 16/04 A2969 RMK AO2 T01590042
KOJA 
21nm W 
291715Z AUTO 35015KT 10SM CLR 10/02 A2972 RMK AO2 T01010019
KRCE 
21nm E 
291715Z AUTO 28017KT 10SM CLR 17/04 A2967 RMK AO2
KCHK 
24nm SE 
291710Z AUTO 23016KT 10SM CLR 18/09 A2966 RMK AO2 T01820088
TAF
KOKC 
32nm E 
291128Z 2912/3012 20017KT P6SM SKC WS020/23040KT FM291500 21015G23KT P6SM SKC FM291800 24017G24KT P6SM SKC FM292100 34018G27KT P6SM SKC TEMPO 3000/3003 34028G36KT FM300800 35014KT P6SM SKC
NOTAMs
Click for the latest NOTAMs
NOTAMs are issued by the DoD/FAA and will open in a separate window not controlled by AirNav.

 

 
 

Would you like to see your business listed on this page?

 If your business provides an interesting product or service to pilots, flight crews, aircraft, or users of the Niles Canyon Ranch Airport, you should consider listing it here.  To start the listing process, click on the button below
 
Add a business
 

Other Pages about Niles Canyon Ranch Airport

Update a link
 
Copyright © AirNav, LLC. All rights reserved. Privacy Policy  Contact